createdAt,value
2017-11-30T00:00:18.602Z,66.30
2017-11-30T00:01:18.617Z,69.20
2017-11-30T00:02:18.633Z,63.60
2017-11-30T00:03:18.647Z,66.80
2017-11-30T00:04:18.665Z,66.20
2017-11-30T00:05:18.679Z,68.20
2017-11-30T00:06:18.696Z,66.10
2017-11-30T00:07:18.713Z,63.80
2017-11-30T00:08:18.725Z,63.50
2017-11-30T00:09:18.742Z,66.70
2017-11-30T00:10:18.760Z,71.70
2017-11-30T00:11:18.772Z,73.10
2017-11-30T00:12:18.794Z,67.70
2017-11-30T00:13:18.802Z,69.50
2017-11-30T00:14:18.818Z,64.90
2017-11-30T00:15:18.833Z,68.00
2017-11-30T00:16:18.849Z,70.90
2017-11-30T00:17:18.863Z,63.70
2017-11-30T00:18:18.881Z,73.00
2017-11-30T00:19:18.896Z,68.60
2017-11-30T00:20:18.913Z,66.00
2017-11-30T00:21:18.927Z,65.80
2017-11-30T00:22:18.942Z,68.50
2017-11-30T00:23:18.958Z,69.10
2017-11-30T00:24:18.972Z,65.10
2017-11-30T00:25:18.988Z,67.70
2017-11-30T00:26:19.004Z,69.10
2017-11-30T00:27:19.018Z,65.10
2017-11-30T00:28:19.035Z,64.80
2017-11-30T00:29:19.050Z,66.50
2017-11-30T00:30:19.065Z,67.90
2017-11-30T00:31:19.081Z,72.10
2017-11-30T00:32:19.096Z,67.20
2017-11-30T00:33:19.110Z,65.90
2017-11-30T00:34:19.127Z,67.50
2017-11-30T00:35:19.143Z,69.00
2017-11-30T00:36:19.158Z,70.80
2017-11-30T00:37:19.172Z,69.50
2017-11-30T00:38:19.188Z,68.40
2017-11-30T00:39:19.203Z,63.40
2017-11-30T00:40:19.220Z,65.90
2017-11-30T00:41:19.234Z,72.50
2017-11-30T00:42:19.250Z,69.80
2017-11-30T00:43:19.264Z,73.00
2017-11-30T00:44:19.281Z,69.50
2017-11-30T00:45:19.295Z,69.30
2017-11-30T00:46:19.314Z,72.10
2017-11-30T00:47:19.326Z,69.60
2017-11-30T00:48:19.343Z,70.50
2017-11-30T00:49:19.355Z,70.10
2017-11-30T00:50:19.390Z,69.50
2017-11-30T00:51:19.387Z,67.50
2017-11-30T00:52:19.404Z,65.30
2017-11-30T00:53:19.416Z,62.40
2017-11-30T00:54:19.433Z,67.30
2017-11-30T00:55:19.448Z,71.50
2017-11-30T00:56:19.472Z,67.00
2017-11-30T00:57:19.479Z,73.10
2017-11-30T00:58:19.494Z,68.90
2017-11-30T00:59:19.509Z,62.50
2017-11-30T01:00:19.625Z,67.60
2017-11-30T01:01:19.540Z,72.40
2017-11-30T01:02:19.556Z,69.30
2017-11-30T01:03:19.572Z,67.40
2017-11-30T01:04:19.585Z,68.80
2017-11-30T01:05:19.602Z,69.00
2017-11-30T01:06:19.616Z,66.80
2017-11-30T01:07:19.634Z,71.60
2017-11-30T01:08:19.647Z,69.10
2017-11-30T01:09:19.662Z,63.10
2017-11-30T01:10:19.677Z,65.80
2017-11-30T01:11:19.693Z,65.40
2017-11-30T01:12:19.708Z,67.10
2017-11-30T01:13:19.726Z,67.60
2017-11-30T01:14:19.739Z,66.30
2017-11-30T01:15:19.755Z,61.70
2017-11-30T01:16:19.772Z,70.30
2017-11-30T01:17:19.783Z,72.80
2017-11-30T01:18:19.800Z,69.30
2017-11-30T01:19:19.816Z,69.80
2017-11-30T01:20:19.831Z,68.80
2017-11-30T01:21:19.845Z,68.00
2017-11-30T01:22:19.862Z,68.70
2017-11-30T01:23:19.877Z,66.30
2017-11-30T01:24:19.893Z,68.00
2017-11-30T01:25:19.908Z,72.90
2017-11-30T01:26:19.925Z,68.80
2017-11-30T01:27:19.937Z,69.30
2017-11-30T01:28:19.953Z,63.00
2017-11-30T01:29:19.968Z,68.30
2017-11-30T01:30:19.985Z,70.80
2017-11-30T01:31:20.000Z,70.80
2017-11-30T01:32:20.018Z,64.30
2017-11-30T01:33:20.030Z,65.80
2017-11-30T01:34:20.046Z,71.50
2017-11-30T01:35:20.061Z,71.10
2017-11-30T01:36:20.076Z,66.40
2017-11-30T01:37:20.092Z,66.80
2017-11-30T01:38:20.109Z,69.30
2017-11-30T01:39:20.122Z,60.40
2017-11-30T01:40:20.139Z,67.60
2017-11-30T01:41:20.153Z,66.70
2017-11-30T01:42:20.168Z,71.30
2017-11-30T01:43:20.185Z,63.70
2017-11-30T01:44:20.200Z,64.00
2017-11-30T01:45:20.216Z,68.10
2017-11-30T01:46:20.232Z,70.20
2017-11-30T01:47:20.249Z,70.90
2017-11-30T01:48:20.265Z,62.80
2017-11-30T01:49:20.279Z,63.80
2017-11-30T01:50:20.293Z,62.10
2017-11-30T01:51:20.309Z,66.20
2017-11-30T01:52:20.323Z,64.20
2017-11-30T01:53:20.339Z,64.50
2017-11-30T01:54:20.355Z,62.50
2017-11-30T01:55:20.370Z,69.00
2017-11-30T01:56:20.385Z,64.60
2017-11-30T01:57:20.400Z,67.90
2017-11-30T01:58:20.423Z,72.70
2017-11-30T01:59:20.431Z,66.70
2017-11-30T02:00:20.448Z,67.90
2017-11-30T02:01:20.461Z,70.50
2017-11-30T02:02:20.479Z,69.50
2017-11-30T02:03:20.493Z,61.80
2017-11-30T02:04:20.509Z,63.90
2017-11-30T02:05:20.525Z,68.90
2017-11-30T02:06:20.542Z,70.00
2017-11-30T02:07:20.554Z,63.70
2017-11-30T02:08:20.570Z,63.70
2017-11-30T02:09:20.585Z,65.00
2017-11-30T02:10:20.601Z,66.20
2017-11-30T02:11:20.621Z,65.90
2017-11-30T02:12:20.641Z,70.00
2017-11-30T02:13:20.648Z,61.80
2017-11-30T02:14:20.664Z,66.70
2017-11-30T02:15:20.679Z,66.40
2017-11-30T02:16:20.694Z,68.20
2017-11-30T02:17:20.710Z,65.60
2017-11-30T02:18:20.726Z,67.80
2017-11-30T02:19:20.741Z,66.20
2017-11-30T02:20:20.756Z,65.60
2017-11-30T02:21:20.771Z,63.30
2017-11-30T02:22:20.787Z,64.60
2017-11-30T02:23:20.801Z,67.60
2017-11-30T02:24:20.819Z,68.30
2017-11-30T02:25:20.833Z,69.40
2017-11-30T02:26:20.848Z,66.50
2017-11-30T02:27:20.869Z,64.50
2017-11-30T02:28:20.879Z,64.80
2017-11-30T02:29:20.895Z,65.60
2017-11-30T02:30:20.910Z,67.20
2017-11-30T02:31:20.927Z,66.80
2017-11-30T02:32:20.941Z,64.20
2017-11-30T02:33:20.993Z,66.80
2017-11-30T02:34:20.972Z,68.00
2017-11-30T02:35:20.990Z,66.20
2017-11-30T02:36:21.010Z,66.70
2017-11-30T02:37:21.017Z,70.10
2017-11-30T02:38:21.034Z,64.10
2017-11-30T02:39:21.049Z,69.50
2017-11-30T02:40:21.065Z,68.80
2017-11-30T02:41:21.081Z,63.20
2017-11-30T02:42:21.098Z,63.00
2017-11-30T02:43:21.111Z,69.10
2017-11-30T02:44:21.127Z,67.00
2017-11-30T02:45:21.141Z,69.60
2017-11-30T02:46:21.157Z,61.90
2017-11-30T02:47:21.172Z,68.40
2017-11-30T02:48:21.187Z,67.20
2017-11-30T02:49:21.207Z,67.70
2017-11-30T02:50:21.217Z,69.20
2017-11-30T02:51:21.235Z,66.70
2017-11-30T02:52:21.249Z,65.60
2017-11-30T02:53:21.265Z,64.60
2017-11-30T02:54:21.279Z,65.30
2017-11-30T02:55:21.293Z,69.60
2017-11-30T02:56:21.313Z,64.10
2017-11-30T02:57:21.326Z,68.00
2017-11-30T02:58:21.348Z,67.70
2017-11-30T02:59:21.356Z,65.50
2017-11-30T03:00:21.374Z,69.90
2017-11-30T03:01:21.387Z,67.90
2017-11-30T03:02:21.403Z,69.00
2017-11-30T03:03:21.418Z,68.10
2017-11-30T03:04:21.463Z,74.40
2017-11-30T03:05:21.448Z,71.20
2017-11-30T03:06:21.463Z,73.70
2017-11-30T03:07:21.479Z,68.10
2017-11-30T03:08:21.495Z,61.40
2017-11-30T03:09:21.511Z,71.90
2017-11-30T03:10:21.525Z,76.10
2017-11-30T03:11:21.541Z,64.50
2017-11-30T03:12:21.557Z,70.90
2017-11-30T03:13:21.570Z,76.20
2017-11-30T03:14:21.587Z,75.60
2017-11-30T03:15:21.604Z,68.70
2017-11-30T03:16:21.617Z,71.00
2017-11-30T03:17:21.631Z,69.70
2017-11-30T03:18:21.653Z,66.80
2017-11-30T03:19:21.664Z,69.10
2017-11-30T03:20:21.679Z,75.00
2017-11-30T03:21:21.694Z,68.60
2017-11-30T03:22:21.711Z,70.10
2017-11-30T03:23:21.725Z,73.50
2017-11-30T03:24:21.740Z,72.20
2017-11-30T03:25:21.756Z,77.70
2017-11-30T03:26:21.771Z,74.50
2017-11-30T03:27:21.786Z,78.10
2017-11-30T03:28:21.801Z,73.00
2017-11-30T03:29:21.818Z,79.10
2017-11-30T03:30:21.839Z,76.00
2017-11-30T03:31:21.850Z,75.20
2017-11-30T03:32:21.862Z,78.20
2017-11-30T03:33:21.878Z,75.50
2017-11-30T03:34:21.892Z,78.80
2017-11-30T03:35:21.908Z,76.10
2017-11-30T03:36:21.924Z,82.60
2017-11-30T03:37:21.940Z,84.10
2017-11-30T03:38:21.955Z,87.90
2017-11-30T03:39:21.970Z,84.60
2017-11-30T03:40:21.985Z,84.60
2017-11-30T03:41:21.999Z,92.20
2017-11-30T03:42:22.016Z,91.60
2017-11-30T03:43:22.032Z,87.20
2017-11-30T03:44:22.047Z,90.60
2017-11-30T03:45:22.061Z,89.60
2017-11-30T03:46:22.082Z,90.00
2017-11-30T03:47:22.093Z,96.00
2017-11-30T03:48:22.108Z,107.80
2017-11-30T03:49:22.123Z,110.00
2017-11-30T03:50:22.137Z,101.20
2017-11-30T03:51:22.153Z,115.10
2017-11-30T03:52:22.169Z,107.90
2017-11-30T03:53:22.193Z,103.80
2017-11-30T03:54:22.198Z,108.90
2017-11-30T03:55:22.214Z,112.40
2017-11-30T03:56:22.229Z,118.80
2017-11-30T03:57:22.244Z,115.00
2017-11-30T03:58:22.259Z,114.20
2017-11-30T03:59:22.276Z,113.70
2017-11-30T04:00:22.292Z,103.10
2017-11-30T04:01:22.306Z,112.10
2017-11-30T04:02:22.324Z,111.00
2017-11-30T04:03:22.336Z,106.60
2017-11-30T04:04:22.352Z,106.30
2017-11-30T04:05:22.366Z,108.20
2017-11-30T04:06:22.382Z,105.30
2017-11-30T04:07:22.398Z,115.80
2017-11-30T04:08:22.412Z,106.80
2017-11-30T04:09:22.435Z,112.30
2017-11-30T04:10:22.443Z,102.00
2017-11-30T04:11:22.459Z,102.50
2017-11-30T04:12:22.474Z,100.60
2017-11-30T04:13:22.490Z,109.40
2017-11-30T04:14:22.503Z,103.00
2017-11-30T04:15:22.519Z,105.10
2017-11-30T04:16:22.534Z,110.30
2017-11-30T04:17:22.550Z,110.90
2017-11-30T04:18:22.565Z,108.20
2017-11-30T04:19:22.580Z,100.90
2017-11-30T04:20:22.596Z,100.20
2017-11-30T04:21:22.609Z,104.00
2017-11-30T04:22:22.627Z,98.10
2017-11-30T04:23:22.642Z,97.70
2017-11-30T04:24:22.655Z,105.90
2017-11-30T04:25:22.672Z,95.70
2017-11-30T04:26:22.685Z,100.60
2017-11-30T04:27:22.701Z,104.10
2017-11-30T04:28:22.717Z,104.90
2017-11-30T04:29:22.832Z,93.40
2017-11-30T04:30:22.753Z,93.50
2017-11-30T04:31:22.762Z,91.80
2017-11-30T04:32:22.778Z,92.00
2017-11-30T04:33:22.791Z,89.50
2017-11-30T04:34:22.807Z,87.90
2017-11-30T04:35:22.824Z,90.00
2017-11-30T04:36:22.837Z,90.40
2017-11-30T04:37:22.852Z,92.50
2017-11-30T04:38:22.866Z,84.80
2017-11-30T04:39:22.884Z,88.70
2017-11-30T04:40:22.898Z,86.10
2017-11-30T04:41:22.912Z,92.30
2017-11-30T04:42:22.927Z,83.50
2017-11-30T04:43:22.945Z,88.50
2017-11-30T04:44:22.960Z,78.80
2017-11-30T04:45:22.973Z,81.30
2017-11-30T04:46:22.989Z,90.00
2017-11-30T04:47:23.005Z,90.90
2017-11-30T04:48:23.019Z,83.50
2017-11-30T04:49:23.033Z,86.00
2017-11-30T04:50:23.048Z,91.00
2017-11-30T04:51:23.064Z,83.70
2017-11-30T04:52:23.080Z,83.20
2017-11-30T04:53:23.093Z,85.70
2017-11-30T04:54:23.108Z,83.40
2017-11-30T04:55:23.126Z,84.10
2017-11-30T04:56:23.141Z,81.60
2017-11-30T04:57:23.154Z,79.10
2017-11-30T04:58:23.170Z,85.30
2017-11-30T04:59:23.185Z,73.80
2017-11-30T05:00:23.201Z,79.80
2017-11-30T05:01:23.215Z,80.00
2017-11-30T05:02:23.230Z,79.40
2017-11-30T05:03:23.245Z,85.30
2017-11-30T05:04:23.260Z,83.10
2017-11-30T05:05:23.275Z,82.50
2017-11-30T05:06:23.291Z,91.20
2017-11-30T05:07:23.307Z,85.20
2017-11-30T05:08:23.321Z,93.60
2017-11-30T05:09:23.364Z,91.50
2017-11-30T05:10:23.351Z,92.60
2017-11-30T05:11:23.366Z,94.40
2017-11-30T05:12:23.382Z,104.50
2017-11-30T05:13:23.396Z,99.50
2017-11-30T05:14:23.413Z,91.70
2017-11-30T05:15:23.428Z,100.50
2017-11-30T05:16:23.443Z,104.90
2017-11-30T05:17:23.457Z,113.60
2017-11-30T05:18:23.473Z,113.50
2017-11-30T05:19:23.489Z,104.60
2017-11-30T05:20:23.504Z,100.70
2017-11-30T05:21:23.518Z,101.40
2017-11-30T05:22:23.535Z,100.50
2017-11-30T05:23:23.550Z,96.70
2017-11-30T05:24:23.564Z,91.70
2017-11-30T05:25:23.579Z,98.60
2017-11-30T05:26:23.604Z,97.40
2017-11-30T05:27:23.610Z,102.80
2017-11-30T05:28:23.626Z,111.40
2017-11-30T05:29:23.640Z,111.30
2017-11-30T05:30:23.655Z,103.60
2017-11-30T05:31:23.671Z,105.60
2017-11-30T05:32:23.686Z,96.60
2017-11-30T05:33:23.700Z,95.70
2017-11-30T05:34:23.715Z,100.90
2017-11-30T05:35:23.731Z,110.10
2017-11-30T05:36:23.753Z,108.00
2017-11-30T05:37:23.762Z,100.40
2017-11-30T05:38:23.777Z,97.10
2017-11-30T05:39:23.791Z,99.50
2017-11-30T05:40:23.808Z,102.40
2017-11-30T05:41:23.821Z,106.00
2017-11-30T05:42:23.837Z,93.20
2017-11-30T05:43:23.853Z,99.90
2017-11-30T05:44:23.867Z,97.80
2017-11-30T05:45:23.883Z,91.10
2017-11-30T05:46:23.898Z,101.40
2017-11-30T05:47:23.913Z,97.10
2017-11-30T05:48:23.930Z,106.90
2017-11-30T05:49:23.943Z,101.90
2017-11-30T05:50:23.962Z,97.30
2017-11-30T05:51:23.974Z,105.90
2017-11-30T05:52:23.993Z,105.70
2017-11-30T05:53:24.003Z,106.50
2017-11-30T05:54:24.022Z,105.00
2017-11-30T05:55:24.035Z,102.70
2017-11-30T05:56:24.056Z,109.80
2017-11-30T05:57:24.067Z,111.40
2017-11-30T05:58:24.080Z,105.80
2017-11-30T05:59:24.096Z,107.50
2017-11-30T06:00:24.111Z,110.10
2017-11-30T06:01:24.130Z,106.40
2017-11-30T06:02:24.143Z,108.90
2017-11-30T06:03:24.163Z,113.30
2017-11-30T06:04:24.172Z,103.00
2017-11-30T06:05:24.186Z,114.30
2017-11-30T06:06:24.201Z,114.70
2017-11-30T06:07:24.218Z,115.80
2017-11-30T06:08:24.244Z,126.70
2017-11-30T06:09:24.257Z,115.60
2017-11-30T06:10:24.262Z,130.60
2017-11-30T06:11:24.279Z,130.30
2017-11-30T06:12:24.299Z,128.10
2017-11-30T06:13:24.308Z,124.70
2017-11-30T06:14:24.324Z,132.70
2017-11-30T06:15:24.342Z,112.30
2017-11-30T06:16:24.355Z,122.40
2017-11-30T06:17:24.369Z,122.10
2017-11-30T06:18:24.384Z,122.70
2017-11-30T06:19:24.400Z,124.50
2017-11-30T06:20:24.415Z,128.10
2017-11-30T06:21:24.454Z,120.70
2017-11-30T06:22:24.446Z,128.50
2017-11-30T06:23:24.460Z,133.80
2017-11-30T06:24:24.477Z,136.40
2017-11-30T06:25:24.490Z,127.60
2017-11-30T06:26:24.506Z,130.20
2017-11-30T06:27:24.522Z,137.90
2017-11-30T06:28:24.537Z,131.20
2017-11-30T06:29:24.551Z,132.20
2017-11-30T06:30:24.570Z,123.50
2017-11-30T06:31:24.582Z,119.90
2017-11-30T06:32:24.598Z,129.90
2017-11-30T06:33:24.611Z,137.90
2017-11-30T06:34:24.627Z,143.80
2017-11-30T06:35:24.642Z,135.00
2017-11-30T06:36:24.658Z,151.10
2017-11-30T06:37:24.674Z,146.90
2017-11-30T06:38:24.687Z,142.20
2017-11-30T06:39:24.702Z,141.60
2017-11-30T06:40:24.719Z,151.70
2017-11-30T06:41:24.733Z,140.10
2017-11-30T06:42:24.748Z,138.90
2017-11-30T06:43:24.764Z,144.40
2017-11-30T06:44:24.806Z,152.40
2017-11-30T06:45:24.794Z,158.70
2017-11-30T06:46:24.818Z,143.10
2017-11-30T06:47:24.825Z,156.10
2017-11-30T06:48:24.841Z,152.70
2017-11-30T06:49:24.855Z,168.40
2017-11-30T06:50:24.873Z,175.30
2017-11-30T06:51:24.886Z,163.80
2017-11-30T06:52:24.906Z,160.30
2017-11-30T06:53:24.916Z,165.80
2017-11-30T06:54:24.930Z,162.30
2017-11-30T06:55:24.946Z,165.60
2017-11-30T06:56:24.964Z,145.20
2017-11-30T06:57:24.976Z,159.10
2017-11-30T06:58:24.992Z,150.20
2017-11-30T06:59:25.007Z,152.40
2017-11-30T07:00:25.022Z,166.30
2017-11-30T07:01:25.037Z,162.80
2017-11-30T07:02:25.053Z,146.70
2017-11-30T07:03:25.068Z,170.30
2017-11-30T07:04:25.085Z,153.20
2017-11-30T07:05:25.098Z,161.20
2017-11-30T07:06:25.114Z,153.80
2017-11-30T07:07:25.128Z,158.10
2017-11-30T07:08:25.143Z,175.70
2017-11-30T07:09:25.162Z,160.90
2017-11-30T07:10:25.178Z,171.10
2017-11-30T07:11:25.189Z,186.20
2017-11-30T07:12:25.209Z,169.80
2017-11-30T07:13:25.219Z,189.60
2017-11-30T07:14:25.236Z,204.00
2017-11-30T07:15:25.250Z,209.70
2017-11-30T07:16:25.267Z,201.90
2017-11-30T07:17:25.280Z,192.40
2017-11-30T07:18:25.300Z,213.10
2017-11-30T07:19:25.311Z,211.50
2017-11-30T07:20:25.328Z,193.90
2017-11-30T07:21:25.342Z,189.40
2017-11-30T07:22:25.359Z,184.10
2017-11-30T07:23:25.371Z,178.00
2017-11-30T07:24:25.392Z,196.50
2017-11-30T07:25:25.401Z,222.50
2017-11-30T07:26:25.418Z,222.10
2017-11-30T07:27:25.444Z,265.90
2017-11-30T07:28:25.449Z,237.20
2017-11-30T07:29:25.462Z,220.00
2017-11-30T07:30:25.529Z,211.20
2017-11-30T07:31:25.494Z,221.70
2017-11-30T07:32:25.511Z,249.20
2017-11-30T07:33:25.525Z,208.70
2017-11-30T07:34:25.540Z,248.50
2017-11-30T07:35:25.556Z,221.80
2017-11-30T07:36:25.571Z,239.30
2017-11-30T07:37:25.587Z,214.70
2017-11-30T07:38:25.602Z,245.10
2017-11-30T07:39:25.618Z,293.00
2017-11-30T07:40:25.636Z,277.40
2017-11-30T07:41:25.647Z,300.70
2017-11-30T07:42:25.663Z,280.60
2017-11-30T07:43:25.678Z,288.30
2017-11-30T07:44:25.696Z,400.00
2017-11-30T07:45:25.708Z,350.40
2017-11-30T07:46:25.723Z,253.00
2017-11-30T07:47:25.739Z,331.20
2017-11-30T07:48:25.767Z,352.10
2017-11-30T07:49:25.769Z,336.90
2017-11-30T07:50:25.785Z,305.60
2017-11-30T07:51:25.805Z,266.50
2017-11-30T07:52:25.816Z,220.40
2017-11-30T07:53:25.829Z,253.00
2017-11-30T07:54:25.859Z,332.70
2017-11-30T07:55:25.868Z,255.60
2017-11-30T07:56:25.877Z,310.10
2017-11-30T07:57:25.891Z,295.50
2017-11-30T07:58:25.910Z,288.30
2017-11-30T07:59:25.924Z,302.00
2017-11-30T08:00:25.941Z,239.80
2017-11-30T08:01:25.954Z,231.20
2017-11-30T08:02:25.969Z,268.90
2017-11-30T08:03:25.985Z,289.70
2017-11-30T08:04:26.001Z,348.00
2017-11-30T08:05:26.015Z,281.20
2017-11-30T08:06:26.031Z,235.00
2017-11-30T08:07:26.047Z,246.30
2017-11-30T08:08:26.062Z,269.10
2017-11-30T08:09:26.077Z,226.10
2017-11-30T08:10:26.092Z,203.00
2017-11-30T08:11:26.111Z,255.50
2017-11-30T08:12:26.123Z,264.50
2017-11-30T08:13:26.137Z,268.10
2017-11-30T08:14:26.171Z,295.40
2017-11-30T08:15:26.171Z,241.00
2017-11-30T08:16:26.186Z,306.70
2017-11-30T08:17:26.199Z,270.80
2017-11-30T08:18:26.219Z,244.40
2017-11-30T08:19:26.232Z,210.90
2017-11-30T08:20:26.247Z,245.70
2017-11-30T08:21:26.262Z,224.60
2017-11-30T08:22:26.278Z,255.50
2017-11-30T08:23:26.294Z,211.90
2017-11-30T08:24:26.310Z,230.40
2017-11-30T08:25:26.323Z,218.80
2017-11-30T08:26:26.340Z,207.40
2017-11-30T08:27:26.356Z,192.40
2017-11-30T08:28:26.371Z,232.40
2017-11-30T08:29:26.386Z,277.10
2017-11-30T08:30:26.401Z,219.10
2017-11-30T08:31:26.418Z,226.20
2017-11-30T08:32:26.433Z,226.00
2017-11-30T08:33:26.449Z,225.80
2017-11-30T08:34:26.464Z,195.70
2017-11-30T08:35:26.480Z,176.20
2017-11-30T08:36:26.496Z,185.10
2017-11-30T08:37:26.511Z,175.00
2017-11-30T08:38:26.749Z,173.90
2017-11-30T08:39:26.545Z,157.00
2017-11-30T08:40:26.559Z,163.00
2017-11-30T08:41:26.577Z,148.80
2017-11-30T08:42:26.653Z,160.10
2017-11-30T08:43:26.609Z,171.90
2017-11-30T08:44:26.621Z,161.30
2017-11-30T08:45:26.635Z,155.30
2017-11-30T08:46:26.651Z,150.10
2017-11-30T08:47:26.667Z,145.80
2017-11-30T08:48:26.688Z,157.40
2017-11-30T08:49:26.697Z,151.40
2017-11-30T08:50:26.713Z,139.30
2017-11-30T08:51:26.733Z,149.20
2017-11-30T08:52:26.796Z,149.00
2017-11-30T08:53:26.767Z,155.90
2017-11-30T08:54:26.776Z,154.70
2017-11-30T08:55:26.792Z,149.20
2017-11-30T08:56:26.807Z,149.30
2017-11-30T08:57:26.823Z,152.50
2017-11-30T08:58:26.839Z,150.20
2017-11-30T08:59:26.856Z,158.50
2017-11-30T09:00:26.869Z,177.80
2017-11-30T09:01:27.087Z,150.00
2017-11-30T09:02:26.902Z,192.10
2017-11-30T09:03:26.979Z,158.40
2017-11-30T09:04:26.934Z,162.80
2017-11-30T09:05:26.954Z,150.70
2017-11-30T09:06:26.965Z,149.00
2017-11-30T09:07:26.982Z,166.20
2017-11-30T09:08:26.997Z,164.00
2017-11-30T09:09:27.012Z,150.20
2017-11-30T09:10:27.027Z,142.90
2017-11-30T09:11:27.245Z,148.80
2017-11-30T09:12:27.061Z,151.60
2017-11-30T09:13:27.075Z,132.00
2017-11-30T09:14:27.091Z,128.90
2017-11-30T09:15:27.108Z,144.60
2017-11-30T09:16:27.195Z,137.20
2017-11-30T09:17:27.140Z,130.30
2017-11-30T09:18:27.157Z,134.00
2017-11-30T09:19:27.172Z,126.30
2017-11-30T09:20:27.188Z,122.40
2017-11-30T09:21:27.203Z,124.10
2017-11-30T09:22:27.219Z,128.60
2017-11-30T09:23:27.235Z,119.80
2017-11-30T09:24:27.252Z,130.70
2017-11-30T09:25:27.266Z,119.80
2017-11-30T09:26:27.284Z,116.70
2017-11-30T09:27:27.300Z,123.30
2017-11-30T09:28:27.315Z,114.90
2017-11-30T09:29:27.331Z,123.90
2017-11-30T09:30:27.346Z,117.40
2017-11-30T09:31:27.363Z,125.50
2017-11-30T09:32:27.379Z,117.60
2017-11-30T09:33:27.395Z,116.50
2017-11-30T09:34:27.411Z,120.80
2017-11-30T09:35:27.427Z,124.90
2017-11-30T09:36:27.443Z,116.30
2017-11-30T09:37:27.459Z,114.20
2017-11-30T09:38:27.473Z,105.40
2017-11-30T09:39:27.490Z,112.80
2017-11-30T09:40:27.508Z,110.90
2017-11-30T09:41:27.522Z,104.00
2017-11-30T09:42:27.537Z,99.80
2017-11-30T09:43:27.555Z,106.00
2017-11-30T09:44:27.570Z,104.70
2017-11-30T09:45:27.587Z,104.90
2017-11-30T09:46:27.605Z,102.90
2017-11-30T09:47:27.620Z,96.30
2017-11-30T09:48:27.635Z,98.60
2017-11-30T09:49:27.650Z,88.30
2017-11-30T09:50:27.669Z,82.00
2017-11-30T09:51:27.683Z,94.00
2017-11-30T09:52:27.699Z,89.60
2017-11-30T09:53:27.714Z,84.10
2017-11-30T09:54:27.729Z,85.40
2017-11-30T09:55:27.747Z,83.80
2017-11-30T09:56:27.814Z,79.20
2017-11-30T09:57:27.779Z,81.10
2017-11-30T09:58:27.796Z,75.90
2017-11-30T09:59:27.811Z,72.40
2017-11-30T10:00:27.829Z,75.80
2017-11-30T10:01:27.843Z,76.10
2017-11-30T10:02:27.866Z,73.20
2017-11-30T10:03:27.876Z,75.10
2017-11-30T10:04:27.892Z,76.10
2017-11-30T10:05:27.909Z,74.20
2017-11-30T10:06:27.932Z,85.10
2017-11-30T10:07:27.945Z,80.10
2017-11-30T10:08:27.959Z,77.20
2017-11-30T10:09:27.971Z,80.50
2017-11-30T10:10:27.988Z,80.70
2017-11-30T10:11:28.004Z,83.20
2017-11-30T10:12:28.021Z,84.20
2017-11-30T10:13:28.037Z,86.40
2017-11-30T10:14:28.052Z,80.40
2017-11-30T10:15:28.067Z,77.70
2017-11-30T10:16:28.085Z,83.50
2017-11-30T10:17:28.103Z,74.50
2017-11-30T10:18:28.117Z,84.60
2017-11-30T10:19:28.133Z,84.90
2017-11-30T10:20:28.149Z,89.70
2017-11-30T10:21:28.165Z,97.30
2017-11-30T10:22:28.182Z,79.00
2017-11-30T10:23:28.197Z,82.80
2017-11-30T10:24:28.213Z,89.50
2017-11-30T10:25:28.379Z,88.80
2017-11-30T10:26:28.245Z,86.20
2017-11-30T10:27:28.262Z,84.50
2017-11-30T10:28:28.279Z,92.00
2017-11-30T10:29:28.294Z,100.20
2017-11-30T10:30:28.310Z,101.90
2017-11-30T10:31:28.327Z,90.60
2017-11-30T10:32:28.342Z,88.70
2017-11-30T10:33:28.359Z,98.70
2017-11-30T10:34:28.374Z,93.30
2017-11-30T10:35:28.391Z,90.90
2017-11-30T10:36:28.420Z,96.90
2017-11-30T10:37:28.421Z,95.00
2017-11-30T10:38:28.438Z,97.50
2017-11-30T10:39:28.455Z,91.00
2017-11-30T10:40:28.472Z,93.00
2017-11-30T10:41:28.489Z,97.30
2017-11-30T10:42:28.503Z,112.60
2017-11-30T10:43:28.520Z,94.30
2017-11-30T10:44:28.536Z,100.00
2017-11-30T10:45:28.551Z,93.70
2017-11-30T10:46:28.570Z,89.20
2017-11-30T10:47:28.584Z,103.40
2017-11-30T10:48:28.601Z,93.50
2017-11-30T10:49:28.615Z,93.00
2017-11-30T10:50:28.634Z,88.10
2017-11-30T10:51:28.650Z,101.00
2017-11-30T10:52:28.667Z,90.80
2017-11-30T10:53:28.682Z,91.30
2017-11-30T10:54:28.698Z,95.50
2017-11-30T10:55:28.714Z,91.50
2017-11-30T10:56:28.745Z,84.30
2017-11-30T10:57:28.748Z,88.90
2017-11-30T10:58:28.933Z,86.10
2017-11-30T10:59:28.809Z,77.70
2017-11-30T11:00:28.797Z,91.30
2017-11-30T11:01:28.814Z,93.40
2017-11-30T11:02:28.831Z,91.30
2017-11-30T11:03:28.846Z,83.40
2017-11-30T11:04:28.865Z,87.80
2017-11-30T11:05:29.278Z,84.80
2017-11-30T11:06:28.905Z,87.20
2017-11-30T11:07:28.913Z,95.30
2017-11-30T11:08:28.927Z,81.60
2017-11-30T11:09:28.950Z,74.70
2017-11-30T11:10:29.029Z,66.80
2017-11-30T11:11:28.976Z,72.60
2017-11-30T11:12:29.001Z,67.10
2017-11-30T11:13:29.016Z,68.10
2017-11-30T11:14:29.040Z,65.90
2017-11-30T11:15:29.040Z,61.80
2017-11-30T11:16:29.057Z,61.00
2017-11-30T11:17:29.072Z,62.70
2017-11-30T11:18:29.089Z,67.90
2017-11-30T11:19:29.106Z,63.60
2017-11-30T11:20:29.121Z,60.50
2017-11-30T11:21:29.140Z,70.20
2017-11-30T11:22:29.154Z,63.70
2017-11-30T11:23:29.173Z,59.80
2017-11-30T11:24:29.187Z,65.50
2017-11-30T11:25:29.231Z,60.80
2017-11-30T11:26:29.223Z,56.70
2017-11-30T11:27:29.239Z,53.60
2017-11-30T11:28:29.252Z,61.30
2017-11-30T11:29:29.268Z,56.00
2017-11-30T11:30:29.284Z,56.20
2017-11-30T11:31:29.301Z,58.20
2017-11-30T11:32:29.319Z,53.40
2017-11-30T11:33:29.336Z,53.40
2017-11-30T11:34:29.351Z,50.80
2017-11-30T11:35:29.366Z,51.50
2017-11-30T11:36:29.384Z,47.70
2017-11-30T11:37:29.401Z,47.60
2017-11-30T11:38:29.416Z,38.60
2017-11-30T11:39:29.432Z,47.50
2017-11-30T11:40:29.449Z,41.50
2017-11-30T11:41:29.472Z,41.70
2017-11-30T11:42:29.481Z,31.90
2017-11-30T11:43:29.599Z,32.40
2017-11-30T11:44:29.514Z,33.30
2017-11-30T11:45:29.530Z,33.20
2017-11-30T11:46:29.546Z,35.60
2017-11-30T11:47:29.563Z,32.20
2017-11-30T11:48:29.580Z,29.60
2017-11-30T11:49:29.598Z,29.80
2017-11-30T11:50:29.612Z,31.80
2017-11-30T11:51:29.627Z,41.40
2017-11-30T11:52:29.649Z,33.50
2017-11-30T11:53:29.662Z,29.60
2017-11-30T11:54:29.678Z,32.30
2017-11-30T11:55:29.694Z,30.10
2017-11-30T11:56:29.711Z,29.90
2017-11-30T11:57:29.725Z,28.80
2017-11-30T11:58:29.754Z,31.50
2017-11-30T11:59:29.762Z,37.80
2017-11-30T12:00:29.832Z,38.20
2017-11-30T12:01:29.792Z,33.30
2017-11-30T12:02:29.809Z,30.70
2017-11-30T12:03:29.825Z,29.40
2017-11-30T12:04:29.849Z,30.50
2017-11-30T12:05:29.858Z,30.80
2017-11-30T12:06:29.875Z,31.50
2017-11-30T12:07:29.890Z,33.80
2017-11-30T12:08:29.909Z,27.70
2017-11-30T12:09:29.925Z,32.30
2017-11-30T12:10:29.942Z,27.30
2017-11-30T12:11:29.958Z,27.90
2017-11-30T12:12:30.002Z,27.00
2017-11-30T12:13:29.991Z,26.90
2017-11-30T12:14:30.007Z,28.50
2017-11-30T12:15:30.025Z,27.20
2017-11-30T12:16:30.041Z,25.60
2017-11-30T12:17:30.073Z,25.10
2017-11-30T12:18:30.174Z,27.60
2017-11-30T12:19:30.090Z,25.40
2017-11-30T12:20:30.107Z,30.10
2017-11-30T12:21:30.122Z,28.60
2017-11-30T12:22:30.141Z,32.00
2017-11-30T12:23:30.157Z,27.50
2017-11-30T12:24:30.211Z,38.10
2017-11-30T12:25:30.192Z,31.10
2017-11-30T12:26:30.206Z,31.90
2017-11-30T12:27:30.223Z,28.60
2017-11-30T12:28:30.249Z,28.50
2017-11-30T12:29:30.257Z,25.30
2017-11-30T12:30:30.275Z,27.80
2017-11-30T12:31:30.290Z,24.70
2017-11-30T12:32:30.308Z,28.80
2017-11-30T12:33:30.327Z,27.00
2017-11-30T12:34:30.343Z,25.90
2017-11-30T12:35:30.358Z,23.60
2017-11-30T12:36:30.376Z,26.90
2017-11-30T12:37:30.390Z,29.10
2017-11-30T12:38:30.407Z,27.90
2017-11-30T12:39:30.425Z,24.50
2017-11-30T12:40:30.441Z,27.30
2017-11-30T12:41:30.459Z,26.40
2017-11-30T12:42:30.474Z,24.10